createdAt,value
2018-08-07T00:01:42.345Z,7.40
2018-08-07T00:04:11.043Z,7.23
2018-08-07T00:06:39.655Z,7.57
2018-08-07T00:09:09.879Z,6.57
2018-08-07T00:11:38.528Z,8.00
2018-08-07T00:14:07.203Z,7.40
2018-08-07T00:16:35.804Z,7.03
2018-08-07T00:19:04.460Z,6.90
2018-08-07T00:21:33.122Z,6.70
2018-08-07T00:24:01.741Z,7.17
2018-08-07T00:26:30.448Z,6.93
2018-08-07T00:28:59.215Z,7.63
2018-08-07T00:31:27.899Z,7.93
2018-08-07T00:33:56.511Z,7.33
2018-08-07T00:36:25.147Z,6.97
2018-08-07T00:38:53.999Z,8.13
2018-08-07T00:41:22.552Z,6.90
2018-08-07T00:43:51.210Z,6.90
2018-08-07T00:46:19.886Z,7.50
2018-08-07T00:48:48.511Z,7.67
2018-08-07T00:51:17.150Z,7.77
2018-08-07T00:53:45.791Z,8.33
2018-08-07T00:56:14.382Z,7.77
2018-08-07T00:58:43.014Z,8.80
2018-08-07T01:01:11.708Z,8.43
2018-08-07T01:03:40.315Z,10.43
2018-08-07T01:06:08.865Z,8.37
2018-08-07T01:08:37.606Z,8.47
2018-08-07T01:11:06.448Z,7.87
2018-08-07T01:13:35.115Z,7.37
2018-08-07T01:16:03.731Z,7.60
2018-08-07T01:18:32.489Z,7.70
2018-08-07T01:21:01.119Z,7.83
2018-08-07T01:23:29.846Z,8.20
2018-08-07T01:25:58.491Z,8.13
2018-08-07T01:28:27.240Z,7.80
2018-08-07T01:30:55.908Z,7.80
2018-08-07T01:33:24.565Z,8.40
2018-08-07T01:35:53.179Z,7.40
2018-08-07T01:38:21.841Z,8.70
2018-08-07T01:40:50.450Z,9.57
2018-08-07T01:43:19.133Z,8.40
2018-08-07T01:45:47.800Z,8.77
2018-08-07T01:48:16.419Z,8.80
2018-08-07T01:50:45.022Z,8.93
2018-08-07T01:53:13.637Z,9.07
2018-08-07T01:55:42.185Z,9.03
2018-08-07T01:58:10.816Z,8.80
2018-08-07T02:00:39.508Z,12.97
2018-08-07T02:03:08.195Z,8.57
2018-08-07T02:05:36.827Z,8.80
2018-08-07T02:08:05.827Z,8.60
2018-08-07T02:10:34.520Z,10.67
2018-08-07T02:13:03.149Z,9.00
2018-08-07T02:15:31.873Z,9.40
2018-08-07T02:18:00.497Z,8.77
2018-08-07T02:20:29.080Z,8.33
2018-08-07T02:22:57.701Z,8.87
2018-08-07T02:25:26.312Z,8.90
2018-08-07T02:27:55.008Z,8.53
2018-08-07T02:30:23.762Z,8.77
2018-08-07T02:32:52.382Z,8.20
2018-08-07T02:35:21.051Z,7.77
2018-08-07T02:37:49.696Z,9.40
2018-08-07T02:40:18.311Z,9.87
2018-08-07T02:42:46.929Z,8.93
2018-08-07T02:45:16.963Z,9.13
2018-08-07T02:47:45.950Z,9.00
2018-08-07T02:50:17.388Z,8.23
2018-08-07T02:52:46.058Z,8.27
2018-08-07T02:55:14.896Z,8.70
2018-08-07T02:57:44.102Z,8.63
2018-08-07T03:00:15.582Z,9.10
2018-08-07T03:02:44.357Z,9.23
2018-08-07T03:05:13.080Z,9.97
2018-08-07T03:07:41.871Z,9.50
2018-08-07T03:10:10.693Z,9.80
2018-08-07T03:12:39.709Z,9.63
2018-08-07T03:15:11.354Z,9.70
2018-08-07T03:17:39.985Z,9.67
2018-08-07T03:20:08.977Z,8.90
2018-08-07T03:22:37.632Z,9.40
2018-08-07T03:25:07.513Z,9.73
2018-08-07T03:27:36.140Z,9.77
2018-08-07T03:30:07.814Z,9.93
2018-08-07T03:32:36.573Z,9.47
2018-08-07T03:35:05.619Z,9.97
2018-08-07T03:37:34.377Z,9.10
2018-08-07T03:40:03.070Z,11.13
2018-08-07T03:42:31.728Z,8.97
2018-08-07T03:45:00.289Z,10.70
2018-08-07T03:47:29.024Z,10.00
2018-08-07T03:49:57.682Z,9.23
2018-08-07T03:52:26.345Z,10.33
2018-08-07T03:54:54.944Z,9.97
2018-08-07T03:57:23.613Z,9.73
2018-08-07T03:59:52.173Z,10.00
2018-08-07T04:02:20.823Z,11.17
2018-08-07T04:04:49.521Z,10.70
2018-08-07T04:07:18.194Z,9.50
2018-08-07T04:09:46.788Z,10.87
2018-08-07T04:12:15.441Z,10.67
2018-08-07T04:14:44.125Z,10.03
2018-08-07T04:17:12.792Z,11.00
2018-08-07T04:19:41.334Z,9.47
2018-08-07T04:22:09.981Z,8.87
2018-08-07T04:24:38.640Z,10.20
2018-08-07T04:27:07.273Z,9.43
2018-08-07T04:29:35.996Z,12.53
2018-08-07T04:32:04.745Z,10.00
2018-08-07T04:34:33.332Z,10.17
2018-08-07T04:37:01.979Z,9.77
2018-08-07T04:39:30.569Z,10.00
2018-08-07T04:41:59.260Z,10.77
2018-08-07T04:44:27.852Z,10.20
2018-08-07T04:46:56.474Z,9.17
2018-08-07T04:49:25.233Z,9.40
2018-08-07T04:51:53.839Z,14.10
2018-08-07T04:54:22.487Z,9.77
2018-08-07T04:56:51.072Z,10.10
2018-08-07T04:59:19.630Z,10.17
2018-08-07T05:01:48.320Z,10.07
2018-08-07T05:04:16.900Z,9.87
2018-08-07T05:06:45.524Z,10.30
2018-08-07T05:09:14.148Z,10.60
2018-08-07T05:11:42.812Z,10.17
2018-08-07T05:14:11.442Z,11.63
2018-08-07T05:16:40.049Z,10.53
2018-08-07T05:19:08.676Z,10.57
2018-08-07T05:21:37.368Z,10.13
2018-08-07T05:24:06.052Z,10.07
2018-08-07T05:26:34.737Z,10.70
2018-08-07T05:29:03.485Z,10.47
2018-08-07T05:31:32.096Z,10.97
2018-08-07T05:34:00.668Z,10.27
2018-08-07T05:36:29.390Z,10.23
2018-08-07T05:38:58.164Z,11.03
2018-08-07T05:41:26.771Z,10.70
2018-08-07T05:43:55.364Z,10.83
2018-08-07T05:46:23.981Z,10.13
2018-08-07T05:48:52.580Z,9.80
2018-08-07T05:51:21.187Z,10.50
2018-08-07T05:53:49.448Z,10.93
2018-08-07T05:56:17.876Z,10.43
2018-08-07T05:58:46.326Z,10.43
2018-08-07T06:01:14.765Z,11.27
2018-08-07T06:03:43.215Z,10.07
2018-08-07T06:06:11.677Z,9.77
2018-08-07T06:08:40.165Z,9.73
2018-08-07T06:11:08.744Z,9.70
2018-08-07T06:13:37.305Z,10.20
2018-08-07T06:16:06.054Z,10.67
2018-08-07T06:18:34.719Z,9.80
2018-08-07T06:21:03.568Z,10.80
2018-08-07T06:23:32.225Z,11.33
2018-08-07T06:26:00.844Z,10.37
2018-08-07T06:28:29.502Z,10.83
2018-08-07T06:30:58.126Z,9.97
2018-08-07T06:33:26.796Z,9.43
2018-08-07T06:35:58.526Z,9.67
2018-08-07T06:38:27.177Z,8.97
2018-08-07T06:40:55.712Z,9.47
2018-08-07T06:43:24.349Z,8.87
2018-08-07T06:45:53.902Z,9.83
2018-08-07T06:48:23.139Z,10.30
2018-08-07T06:50:51.760Z,9.30
2018-08-07T06:53:20.432Z,10.17
2018-08-07T06:55:49.128Z,9.20
2018-08-07T06:58:18.111Z,8.97
2018-08-07T07:00:47.032Z,10.63
2018-08-07T07:03:15.632Z,8.80
2018-08-07T07:05:44.301Z,8.47
2018-08-07T07:08:12.924Z,8.33
2018-08-07T07:10:41.677Z,8.67
2018-08-07T07:13:10.294Z,7.93
2018-08-07T07:15:38.941Z,7.37
2018-08-07T07:18:07.659Z,8.17
2018-08-07T07:20:36.284Z,7.60
2018-08-07T07:23:04.971Z,8.27
2018-08-07T07:25:33.624Z,8.20
2018-08-07T07:28:02.238Z,8.03
2018-08-07T07:30:30.910Z,8.23
2018-08-07T07:32:59.508Z,9.83
2018-08-07T07:35:28.129Z,7.53
2018-08-07T07:37:56.794Z,7.83
2018-08-07T07:40:25.425Z,7.57
2018-08-07T07:42:53.976Z,7.77
2018-08-07T07:45:22.551Z,8.00
2018-08-07T07:47:51.112Z,7.40
2018-08-07T07:50:20.875Z,10.10
2018-08-07T07:52:49.551Z,8.20
2018-08-07T07:55:18.736Z,8.10
2018-08-07T07:57:52.998Z,7.47
2018-08-07T08:00:23.263Z,7.37
2018-08-07T08:02:52.017Z,8.90
2018-08-07T08:05:21.889Z,7.43
2018-08-07T08:07:50.307Z,8.23
2018-08-07T08:10:18.901Z,6.83
2018-08-07T08:12:47.579Z,7.30
2018-08-07T08:15:17.568Z,7.20
2018-08-07T08:17:46.786Z,6.93
2018-08-07T08:20:17.642Z,7.13
2018-08-07T08:22:46.532Z,7.17
2018-08-07T08:25:15.127Z,7.20
2018-08-07T08:27:43.739Z,15.33
2018-08-07T08:30:13.826Z,7.90
2018-08-07T08:32:42.714Z,8.53
2018-08-07T08:35:13.034Z,7.03
2018-08-07T08:37:42.114Z,6.33
2018-08-07T08:40:13.244Z,6.70
2018-08-07T08:42:41.932Z,9.80
2018-08-07T08:45:13.869Z,6.23
2018-08-07T08:47:43.775Z,6.53
2018-08-07T08:50:14.036Z,6.63
2018-08-07T08:52:43.120Z,6.53
2018-08-07T08:55:11.736Z,6.27
2018-08-07T08:57:41.013Z,6.53
2018-08-07T09:00:16.744Z,6.07
2018-08-07T09:02:46.082Z,6.10
2018-08-07T09:05:14.878Z,6.20
2018-08-07T09:07:43.960Z,5.33
2018-08-07T09:10:17.141Z,6.97
2018-08-07T09:12:45.921Z,6.00
2018-08-07T09:15:15.028Z,9.20
2018-08-07T09:17:43.739Z,6.93
2018-08-07T09:20:19.771Z,6.47
2018-08-07T09:22:48.379Z,5.50
2018-08-07T09:25:17.187Z,6.03
2018-08-07T09:27:45.860Z,5.40
2018-08-07T09:30:18.772Z,5.90
2018-08-07T09:32:48.370Z,6.07
2018-08-07T09:35:17.716Z,7.17
2018-08-07T09:37:46.600Z,6.33
2018-08-07T09:40:16.107Z,5.60
2018-08-07T09:42:46.305Z,5.73
2018-08-07T09:45:17.553Z,5.70
2018-08-07T09:47:46.743Z,6.00
2018-08-07T09:50:16.227Z,5.20
2018-08-07T09:52:45.071Z,6.17
2018-08-07T09:55:13.751Z,10.40
2018-08-07T09:57:42.548Z,5.57
2018-08-07T10:00:21.979Z,6.23
2018-08-07T10:02:52.387Z,5.70
2018-08-07T10:05:22.712Z,11.63
2018-08-07T10:07:51.299Z,5.97
2018-08-07T10:10:20.428Z,5.77
2018-08-07T10:12:49.049Z,5.20
2018-08-07T10:15:17.854Z,5.50
2018-08-07T10:17:46.519Z,4.90
2018-08-07T10:20:15.698Z,5.57
2018-08-07T10:22:44.516Z,5.80
2018-08-07T10:25:14.391Z,6.10
2018-08-07T10:27:44.065Z,5.40
2018-08-07T10:30:15.148Z,6.20
2018-08-07T10:32:43.935Z,6.10
2018-08-07T10:35:13.020Z,6.03
2018-08-07T10:37:47.390Z,5.80
2018-08-07T10:40:18.037Z,6.70
2018-08-07T10:42:46.691Z,10.50
2018-08-07T10:45:16.567Z,5.57
2018-08-07T10:47:45.350Z,7.47
2018-08-07T10:50:15.806Z,5.83
2018-08-07T10:52:44.683Z,6.90
2018-08-07T10:55:13.616Z,5.27
2018-08-07T10:57:43.998Z,5.50
2018-08-07T11:00:18.657Z,5.30
2018-08-07T11:02:48.280Z,6.53
2018-08-07T11:05:17.298Z,5.33
2018-08-07T11:07:45.941Z,5.93
2018-08-07T11:10:15.025Z,5.67
2018-08-07T11:12:43.677Z,5.63
2018-08-07T11:15:20.346Z,5.03
2018-08-07T11:17:49.867Z,5.00
2018-08-07T11:20:18.538Z,4.80
2018-08-07T11:22:48.473Z,5.13
2018-08-07T11:25:18.263Z,7.13
2018-08-07T11:27:46.845Z,5.60
2018-08-07T11:30:33.606Z,5.80
2018-08-07T11:33:02.973Z,5.30
2018-08-07T11:35:31.592Z,7.07
2018-08-07T11:38:01.208Z,6.17
2018-08-07T11:40:29.843Z,5.97
2018-08-07T11:42:58.899Z,6.40
2018-08-07T11:45:29.036Z,6.03
2018-08-07T11:47:57.772Z,6.30
2018-08-07T11:50:27.422Z,5.93
2018-08-07T11:52:56.124Z,6.40
2018-08-07T11:55:25.280Z,5.90
2018-08-07T11:58:00.686Z,5.70
2018-08-07T12:00:39.629Z,5.97
2018-08-07T12:03:10.827Z,5.33
2018-08-07T12:05:39.482Z,5.40
2018-08-07T12:08:08.579Z,5.37
2018-08-07T12:10:37.152Z,4.97
2018-08-07T12:13:06.083Z,5.10
2018-08-07T12:15:34.731Z,4.87
2018-08-07T12:18:03.359Z,5.03
2018-08-07T12:20:32.020Z,4.87
2018-08-07T12:23:00.584Z,5.30
2018-08-07T12:25:29.197Z,5.33
2018-08-07T12:27:57.850Z,5.97
2018-08-07T12:30:28.726Z,4.83
2018-08-07T12:33:05.536Z,5.50
2018-08-07T12:35:34.096Z,5.47
2018-08-07T12:38:02.669Z,5.77
2018-08-07T12:40:32.395Z,5.53
2018-08-07T12:43:03.271Z,5.23
2018-08-07T12:45:32.049Z,5.50
2018-08-07T12:48:00.780Z,4.93
2018-08-07T12:50:29.450Z,5.17
2018-08-07T12:52:58.200Z,5.60
2018-08-07T12:55:26.893Z,5.53
2018-08-07T12:57:55.640Z,5.17
2018-08-07T13:00:26.628Z,5.20
2018-08-07T13:02:56.625Z,6.23
2018-08-07T13:05:25.235Z,5.63
2018-08-07T13:07:53.889Z,5.00
2018-08-07T13:10:23.754Z,5.03
2018-08-07T13:12:53.137Z,5.13
2018-08-07T13:15:22.300Z,5.20
2018-08-07T13:17:51.059Z,4.93
2018-08-07T13:20:19.738Z,6.83
2018-08-07T13:22:48.688Z,4.70
2018-08-07T13:25:19.648Z,4.90
2018-08-07T13:27:48.243Z,5.87
2018-08-07T13:30:20.076Z,4.80
2018-08-07T13:32:48.855Z,9.00
2018-08-07T13:35:17.891Z,4.73
2018-08-07T13:37:47.656Z,4.73
2018-08-07T13:40:18.617Z,4.80
2018-08-07T13:42:48.327Z,4.93
2018-08-07T13:45:21.963Z,4.87
2018-08-07T13:47:50.575Z,8.77
2018-08-07T13:50:22.436Z,5.03
2018-08-07T13:52:51.667Z,4.77
2018-08-07T13:55:21.292Z,8.03
2018-08-07T13:57:49.896Z,4.53
2018-08-07T14:00:23.167Z,4.50
2018-08-07T14:02:52.372Z,4.60
2018-08-07T14:05:21.546Z,5.37
2018-08-07T14:07:51.167Z,5.10
2018-08-07T14:10:20.612Z,4.27
2018-08-07T14:12:49.287Z,6.83
2018-08-07T14:15:18.560Z,4.10
2018-08-07T14:17:47.383Z,4.30
2018-08-07T14:20:16.837Z,4.80
2018-08-07T14:22:45.706Z,5.50
2018-08-07T14:25:16.137Z,5.10
2018-08-07T14:27:44.825Z,3.83
2018-08-07T14:30:16.370Z,4.80
2018-08-07T14:32:44.987Z,3.70
2018-08-07T14:35:13.716Z,6.73
2018-08-07T14:37:44.469Z,3.70
2018-08-07T14:40:14.476Z,6.80
2018-08-07T14:42:44.348Z,3.80
2018-08-07T14:45:13.963Z,3.30
2018-08-07T14:47:43.012Z,4.87
2018-08-07T14:50:12.972Z,8.57
2018-08-07T14:52:41.823Z,3.70
2018-08-07T14:55:11.031Z,5.40
2018-08-07T14:57:40.116Z,4.93
2018-08-07T15:00:11.232Z,3.50
2018-08-07T15:02:39.825Z,3.30
2018-08-07T15:05:08.738Z,4.67
2018-08-07T15:07:37.415Z,4.77
2018-08-07T15:10:08.102Z,2.70
2018-08-07T15:12:36.793Z,10.87
2018-08-07T15:15:07.949Z,3.77
2018-08-07T15:17:36.622Z,2.60
2018-08-07T15:20:05.723Z,2.90
2018-08-07T15:22:34.329Z,3.10
2018-08-07T15:25:02.888Z,2.80
2018-08-07T15:27:31.557Z,2.53
2018-08-07T15:30:00.154Z,2.77
2018-08-07T15:32:28.801Z,2.90
2018-08-07T15:34:57.416Z,2.60
2018-08-07T15:37:26.025Z,2.90
2018-08-07T15:39:54.612Z,2.77
2018-08-07T15:42:23.168Z,3.03
2018-08-07T15:44:51.709Z,2.90
2018-08-07T15:47:20.362Z,3.00
2018-08-07T15:49:49.041Z,2.57
2018-08-07T15:52:17.721Z,4.03
2018-08-07T15:54:46.305Z,2.60
2018-08-07T15:57:14.906Z,2.63
2018-08-07T15:59:43.471Z,2.83
2018-08-07T16:02:11.965Z,2.30
2018-08-07T16:04:40.552Z,2.23
2018-08-07T16:07:09.161Z,2.83
2018-08-07T16:09:37.790Z,2.27
2018-08-07T16:12:06.735Z,2.00
2018-08-07T16:14:35.349Z,3.17
2018-08-07T16:17:03.908Z,1.90
2018-08-07T16:19:32.532Z,2.03
2018-08-07T16:22:01.126Z,1.93
2018-08-07T16:24:29.832Z,1.67
2018-08-07T16:26:58.424Z,2.10
2018-08-07T16:29:27.136Z,1.50
2018-08-07T16:31:55.840Z,1.80
2018-08-07T16:34:24.559Z,1.83
2018-08-07T16:36:53.229Z,1.70
2018-08-07T16:39:21.809Z,2.10
2018-08-07T16:41:50.393Z,1.70
2018-08-07T16:44:18.985Z,2.60
2018-08-07T16:46:47.509Z,2.00
2018-08-07T16:49:16.099Z,2.10
2018-08-07T16:51:44.756Z,4.10
2018-08-07T16:54:13.381Z,1.80
2018-08-07T16:56:41.931Z,3.33
2018-08-07T16:59:10.485Z,1.70
2018-08-07T17:01:39.067Z,1.60
2018-08-07T17:04:07.766Z,1.90
2018-08-07T17:06:36.316Z,1.87
2018-08-07T17:09:08.683Z,2.00
2018-08-07T17:11:37.353Z,1.77
2018-08-07T17:14:06.484Z,2.03
2018-08-07T17:16:35.025Z,1.80
2018-08-07T17:19:03.622Z,2.10
2018-08-07T17:21:32.194Z,5.03
2018-08-07T17:24:00.950Z,1.80
2018-08-07T17:26:29.580Z,2.07
2018-08-07T17:28:58.229Z,2.10
2018-08-07T17:31:26.842Z,2.07
2018-08-07T17:33:55.431Z,1.93
2018-08-07T17:36:24.101Z,2.27
2018-08-07T17:38:52.681Z,2.30
2018-08-07T17:41:21.292Z,4.37
2018-08-07T17:43:49.926Z,2.37
2018-08-07T17:46:18.548Z,2.10
2018-08-07T17:48:47.156Z,3.23
2018-08-07T17:51:15.809Z,2.37
2018-08-07T17:53:44.409Z,2.30
2018-08-07T17:56:13.035Z,2.70
2018-08-07T17:58:41.615Z,2.97
2018-08-07T18:01:10.196Z,2.67
2018-08-07T18:03:38.792Z,2.93
2018-08-07T18:06:08.090Z,2.47
2018-08-07T18:08:36.695Z,2.80
2018-08-07T18:11:05.399Z,2.50
2018-08-07T18:13:33.983Z,2.60
2018-08-07T18:16:02.539Z,2.50
2018-08-07T18:18:31.240Z,2.40
2018-08-07T18:20:59.912Z,2.53
2018-08-07T18:23:28.495Z,2.83
2018-08-07T18:25:57.148Z,3.27
2018-08-07T18:28:25.788Z,2.57
2018-08-07T18:30:54.362Z,3.30
2018-08-07T18:33:22.926Z,2.73
2018-08-07T18:35:51.536Z,2.93
2018-08-07T18:38:20.213Z,2.93
2018-08-07T18:40:48.795Z,2.60
2018-08-07T18:43:17.361Z,3.67
2018-08-07T18:45:45.939Z,2.60
2018-08-07T18:48:14.697Z,3.00
2018-08-07T18:50:43.269Z,2.97
2018-08-07T18:53:11.817Z,3.03
2018-08-07T18:55:40.399Z,4.37
2018-08-07T18:58:09.062Z,2.83
2018-08-07T19:00:37.675Z,3.87
2018-08-07T19:03:06.285Z,3.17
2018-08-07T19:05:35.009Z,2.97
2018-08-07T19:08:03.611Z,3.10
2018-08-07T19:10:32.261Z,3.37
2018-08-07T19:13:00.845Z,3.60
2018-08-07T19:15:29.471Z,3.07
2018-08-07T19:17:58.142Z,3.43
2018-08-07T19:20:26.771Z,3.20
2018-08-07T19:22:55.327Z,3.23
2018-08-07T19:25:23.921Z,3.33
2018-08-07T19:27:52.530Z,2.70
2018-08-07T19:30:22.980Z,3.37
2018-08-07T19:32:51.577Z,3.40
2018-08-07T19:35:20.288Z,3.03
2018-08-07T19:37:48.956Z,3.20
2018-08-07T19:40:18.611Z,3.03
2018-08-07T19:42:47.943Z,3.10
2018-08-07T19:45:16.951Z,3.00
2018-08-07T19:48:19.947Z,3.67
2018-08-07T19:50:48.419Z,3.10
2018-08-07T19:53:16.901Z,2.77
2018-08-07T19:55:45.538Z,3.23
2018-08-07T19:58:13.900Z,3.67
2018-08-07T20:00:42.343Z,2.80
2018-08-07T20:03:10.769Z,3.23
2018-08-07T20:05:39.216Z,3.13
2018-08-07T20:08:07.716Z,2.93
2018-08-07T20:10:36.177Z,3.53
2018-08-07T20:13:04.750Z,3.27
2018-08-07T20:15:33.229Z,3.40
2018-08-07T20:18:01.740Z,3.50
2018-08-07T20:20:30.237Z,3.37
2018-08-07T20:22:58.748Z,3.63
2018-08-07T20:25:27.332Z,4.43
2018-08-07T20:27:56.654Z,3.30
2018-08-07T20:30:25.588Z,3.13
2018-08-07T20:32:56.549Z,3.40
2018-08-07T20:35:25.394Z,3.10
2018-08-07T20:37:54.242Z,3.13
2018-08-07T20:40:25.075Z,3.53
2018-08-07T20:42:54.917Z,3.30
2018-08-07T20:45:23.708Z,3.23
2018-08-07T20:47:52.816Z,3.23
2018-08-07T20:50:22.764Z,3.13
2018-08-07T20:52:52.076Z,7.43
2018-08-07T20:55:20.768Z,3.40
2018-08-07T20:57:49.641Z,3.70
2018-08-07T21:00:20.933Z,3.20
2018-08-07T21:02:50.285Z,3.57
2018-08-07T21:05:19.233Z,3.33
2018-08-07T21:07:47.994Z,6.53
2018-08-07T21:10:25.835Z,3.97
2018-08-07T21:12:55.096Z,3.97
2018-08-07T21:15:23.943Z,4.20
2018-08-07T21:17:52.704Z,3.77
2018-08-07T21:20:22.294Z,3.80
2018-08-07T21:22:51.106Z,3.70
2018-08-07T21:25:21.657Z,3.67
2018-08-07T21:27:52.724Z,3.70
2018-08-07T21:30:23.228Z,3.80
2018-08-07T21:32:51.928Z,3.40
2018-08-07T21:35:20.618Z,3.90
2018-08-07T21:37:49.440Z,3.53
2018-08-07T21:40:19.670Z,3.53
2018-08-07T21:42:49.433Z,4.10
2018-08-07T21:45:18.727Z,3.70
2018-08-07T21:47:47.443Z,4.53
2018-08-07T21:50:18.451Z,4.50
2018-08-07T21:52:47.181Z,4.03
2018-08-07T21:55:17.383Z,4.13
2018-08-07T21:57:46.148Z,3.73
2018-08-07T22:00:19.652Z,3.77
2018-08-07T22:02:49.260Z,3.97
2018-08-07T22:05:18.122Z,3.83
2018-08-07T22:07:46.769Z,3.37
2018-08-07T22:10:18.152Z,3.53
2018-08-07T22:12:47.121Z,3.87
2018-08-07T22:15:16.820Z,3.97
2018-08-07T22:17:45.568Z,3.83
2018-08-07T22:20:14.851Z,5.90
2018-08-07T22:22:43.649Z,3.73
2018-08-07T22:25:12.352Z,3.83
2018-08-07T22:27:41.019Z,3.87
2018-08-07T22:30:13.068Z,3.70
2018-08-07T22:32:41.745Z,4.07
2018-08-07T22:35:10.722Z,3.97
2018-08-07T22:37:40.445Z,5.07
2018-08-07T22:40:10.683Z,4.10
2018-08-07T22:42:39.551Z,4.10
2018-08-07T22:45:10.488Z,4.23
2018-08-07T22:47:39.466Z,5.10
2018-08-07T22:50:09.715Z,4.40
2018-08-07T22:52:39.224Z,3.97
2018-08-07T22:55:09.815Z,4.63
2018-08-07T22:57:38.541Z,4.77
2018-08-07T23:00:13.047Z,11.17
2018-08-07T23:02:42.568Z,4.20
2018-08-07T23:05:12.166Z,4.60
2018-08-07T23:07:40.957Z,4.70
2018-08-07T23:10:13.258Z,5.07
2018-08-07T23:12:42.359Z,4.97
2018-08-07T23:15:13.750Z,4.70
2018-08-07T23:17:42.773Z,4.87
2018-08-07T23:20:13.552Z,5.07
2018-08-07T23:22:42.236Z,4.33
2018-08-07T23:25:11.853Z,4.53
2018-08-07T23:27:40.700Z,5.13
2018-08-07T23:30:12.032Z,5.00
2018-08-07T23:32:41.186Z,5.07
2018-08-07T23:35:10.916Z,5.30
2018-08-07T23:37:39.612Z,5.07
2018-08-07T23:40:10.324Z,4.97
2018-08-07T23:42:39.643Z,5.60
2018-08-07T23:45:10.272Z,5.60
2018-08-07T23:47:38.976Z,4.70
2018-08-07T23:50:08.252Z,4.70
2018-08-07T23:52:36.863Z,5.10
2018-08-07T23:55:06.338Z,5.37
2018-08-07T23:57:35.337Z,5.53
